Time;durP1;ratioP1;P1;durP2;ratioP2;P2;SDS_P1;SDS_P2;PMS_P1;PMS_P2;Temp;Humidity;BMP_temperature;BMP_pressure;BME280_temperature;BME280_humidity;BME280_pressure;Samples;Min_cycle;Max_cycle;Signal;HPM_P1;HPM_P2
2023/01/07 00:01:19;;;;;;;0.57;0.57;;;;;;;;;;4934681;29;20175;-75
2023/01/07 00:03:45;;;;;;;0.60;0.60;;;;;;;;;;4933803;29;20246;-74
2023/01/07 00:06:13;;;;;;;0.50;0.50;;;;;;;;;;4934417;29;20230;-74
2023/01/07 00:08:40;;;;;;;0.50;0.50;;;;;;;;;;4934909;29;20600;-73
2023/01/07 00:11:08;;;;;;;0.57;0.57;;;;;;;;;;4934419;29;20533;-75
2023/01/07 00:13:34;;;;;;;0.60;0.60;;;;;;;;;;4934013;29;20179;-75
2023/01/07 00:16:01;;;;;;;0.50;0.50;;;;;;;;;;4934378;29;20286;-74
2023/01/07 00:18:27;;;;;;;0.60;0.60;;;;;;;;;;4934391;29;20633;-74
2023/01/07 00:21:00;;;;;;;0.50;0.50;;;;;;;;;;4934515;29;20187;-75
2023/01/07 00:23:27;;;;;;;0.60;0.60;;;;;;;;;;4933673;29;20183;-74
2023/01/07 00:25:58;;;;;;;0.60;0.60;;;;;;;;;;4933909;29;20672;-75
2023/01/07 00:28:24;;;;;;;0.50;0.50;;;;;;;;;;4934460;29;20171;-75
2023/01/07 00:30:50;;;;;;;0.50;0.50;;;;;;;;;;4934195;29;20176;-73
2023/01/07 00:33:17;;;;;;;0.60;0.60;;;;;;;;;;4933700;29;20187;-75
2023/01/07 00:35:46;;;;;;;0.60;0.60;;;;;;;;;;4934331;29;20207;-74
2023/01/07 00:38:12;;;;;;;0.70;0.70;;;;;;;;;;4934174;29;20207;-75
2023/01/07 00:40:38;;;;;;;0.60;0.60;;;;;;;;;;4934308;29;20182;-73
2023/01/07 00:43:04;;;;;;;0.53;0.53;;;;;;;;;;4933574;29;20600;-74
2023/01/07 00:45:32;;;;;;;0.50;0.50;;;;;;;;;;4934245;29;20203;-75
2023/01/07 00:47:58;;;;;;;0.60;0.60;;;;;;;;;;4934021;29;20633;-74
2023/01/07 00:50:26;;;;;;;0.60;0.60;;;;;;;;;;4934192;29;20183;-75
2023/01/07 00:52:52;;;;;;;0.50;0.50;;;;;;;;;;4933657;29;20265;-75
2023/01/07 00:55:18;;;;;;;0.60;0.60;;;;;;;;;;4933896;29;20206;-75
2023/01/07 00:57:44;;;;;;;0.50;0.50;;;;;;;;;;4933732;29;20626;-75
2023/01/07 01:00:11;;;;;;;0.60;0.60;;;;;;;;;;4933884;29;20185;-75
2023/01/07 01:02:37;;;;;;;0.60;0.60;;;;;;;;;;4933363;29;20235;-74
2023/01/07 01:05:04;;;;;;;0.50;0.50;;;;;;;;;;4933702;29;20636;-75
2023/01/07 01:07:29;;;;;;;0.50;0.50;;;;;;;;;;4933812;29;20290;-75
2023/01/07 01:09:56;;;;;;;0.50;0.50;;;;;;;;;;4933752;29;20187;-75
2023/01/07 01:12:22;;;;;;;0.50;0.50;;;;;;;;;;4933417;29;20186;-74
2023/01/07 01:14:47;;;;;;;0.50;0.50;;;;;;;;;;4933784;29;20195;-74
2023/01/07 01:17:13;;;;;;;0.60;0.60;;;;;;;;;;4937217;29;20211;-74
2023/01/07 01:19:39;;;;;;;0.60;0.60;;;;;;;;;;4937648;29;20187;-74
2023/01/07 01:22:05;;;;;;;0.60;0.60;;;;;;;;;;4937564;29;20186;-75
2023/01/07 01:24:32;;;;;;;0.60;0.60;;;;;;;;;;4936880;29;20206;-73
2023/01/07 01:26:57;;;;;;;0.50;0.50;;;;;;;;;;4937217;29;20220;-74
2023/01/07 01:29:23;;;;;;;0.50;0.50;;;;;;;;;;4937537;29;20180;-73
2023/01/07 01:31:50;;;;;;;0.60;0.60;;;;;;;;;;4937539;29;20523;-75
2023/01/07 01:34:16;;;;;;;0.57;0.57;;;;;;;;;;4936866;29;20286;-74
2023/01/07 01:36:42;;;;;;;0.60;0.60;;;;;;;;;;4937322;29;20203;-74
2023/01/07 01:39:08;;;;;;;0.60;0.60;;;;;;;;;;4937105;29;20186;-74
2023/01/07 01:41:34;;;;;;;0.63;0.63;;;;;;;;;;4936844;29;20183;-75
2023/01/07 01:44:00;;;;;;;0.60;0.60;;;;;;;;;;4936393;29;20270;-75
2023/01/07 01:46:40;;;;;;;0.50;0.50;;;;;;;;;;4936616;29;20219;-75
2023/01/07 01:49:12;;;;;;;0.60;0.60;;;;;;;;;;4936564;29;20270;-75
2023/01/07 01:51:40;;;;;;;0.60;0.60;;;;;;;;;;4936749;29;20187;-75
2023/01/07 01:54:10;;;;;;;0.67;0.67;;;;;;;;;;4936058;29;20199;-75
2023/01/07 01:56:39;;;;;;;0.60;0.60;;;;;;;;;;4936764;29;20202;-75
2023/01/07 01:59:10;;;;;;;0.60;0.60;;;;;;;;;;4936909;29;20183;-75
2023/01/07 02:01:36;;;;;;;0.60;0.60;;;;;;;;;;4936738;29;20242;-73
2023/01/07 02:04:07;;;;;;;0.60;0.60;;;;;;;;;;4936097;29;20551;-75
2023/01/07 02:06:33;;;;;;;0.60;0.60;;;;;;;;;;4936457;29;20593;-73
2023/01/07 02:09:00;;;;;;;0.60;0.60;;;;;;;;;;4941459;29;20175;-73
2023/01/07 02:11:28;;;;;;;0.60;0.60;;;;;;;;;;4948071;29;20183;-73
2023/01/07 02:14:00;;;;;;;0.60;0.60;;;;;;;;;;4946990;29;20183;-73
2023/01/07 02:16:26;;;;;;;0.50;0.50;;;;;;;;;;4945797;29;20183;-73
2023/01/07 02:19:11;;;;;;;0.77;0.77;;;;;;;;;;4936242;29;20270;-73
2023/01/07 02:21:37;;;;;;;0.60;0.60;;;;;;;;;;4936636;29;20183;-72
2023/01/07 02:24:21;;;;;;;0.50;0.50;;;;;;;;;;4935843;29;20179;-73
2023/01/07 02:26:47;;;;;;;0.60;0.60;;;;;;;;;;4935852;29;20211;-72
2023/01/07 02:29:13;;;;;;;0.60;0.60;;;;;;;;;;4936001;29;20266;-72
2023/01/07 02:31:58;;;;;;;0.57;0.57;;;;;;;;;;4935858;29;20681;-73
2023/01/07 02:34:42;;;;;;;0.50;0.50;;;;;;;;;;4935481;29;20273;-73
2023/01/07 02:37:13;;;;;;;0.60;0.60;;;;;;;;;;4935887;29;20190;-73
2023/01/07 02:39:53;;;;;;;0.70;0.70;;;;;;;;;;4935883;29;20187;-72
2023/01/07 02:42:27;;;;;;;0.60;0.60;;;;;;;;;;4936099;29;20179;-72
2023/01/07 02:45:01;;;;;;;0.50;0.50;;;;;;;;;;4935354;29;20667;-73
2023/01/07 02:47:30;;;;;;;0.60;0.60;;;;;;;;;;4935342;29;20750;-74
2023/01/07 02:49:56;;;;;;;0.70;0.70;;;;;;;;;;4935447;29;20202;-73
2023/01/07 02:52:30;;;;;;;0.70;0.70;;;;;;;;;;4935450;29;20176;-74
2023/01/07 02:54:59;;;;;;;0.60;0.60;;;;;;;;;;4935083;29;20642;-73
2023/01/07 02:57:36;;;;;;;0.60;0.60;;;;;;;;;;4935453;29;20179;-75
2023/01/07 03:00:08;;;;;;;0.60;0.60;;;;;;;;;;4935349;29;20183;-73
2023/01/07 03:02:45;;;;;;;0.70;0.70;;;;;;;;;;4934872;29;20179;-74
2023/01/07 03:05:38;;;;;;;0.57;0.57;;;;;;;;;;4935405;29;20575;-73
2023/01/07 03:08:04;;;;;;;0.70;0.70;;;;;;;;;;4933511;29;20335;-74
2023/01/07 03:10:37;;;;;;;0.63;0.63;;;;;;;;;;4935355;29;20653;-74
2023/01/07 03:13:05;;;;;;;0.50;0.50;;;;;;;;;;4934817;29;20199;-73
2023/01/07 03:15:44;;;;;;;0.50;0.50;;;;;;;;;;4935018;29;20195;-74
2023/01/07 03:18:18;;;;;;;0.70;0.70;;;;;;;;;;4935458;29;20234;-74
2023/01/07 03:20:46;;;;;;;0.60;0.60;;;;;;;;;;4935306;29;20186;-74
2023/01/07 03:23:14;;;;;;;0.63;0.63;;;;;;;;;;4934668;29;20228;-74
2023/01/07 03:25:43;;;;;;;0.60;0.60;;;;;;;;;;4934849;29;20289;-74
2023/01/07 03:28:10;;;;;;;0.60;0.60;;;;;;;;;;4935016;29;20234;-74
2023/01/07 03:30:37;;;;;;;0.53;0.53;;;;;;;;;;4935075;29;20183;-74
2023/01/07 03:33:16;;;;;;;0.63;0.63;;;;;;;;;;4934419;29;20183;-74
2023/01/07 03:35:44;;;;;;;0.60;0.60;;;;;;;;;;4934935;29;20197;-74
2023/01/07 03:38:11;;;;;;;0.50;0.50;;;;;;;;;;4934272;29;20171;-74
2023/01/07 03:40:37;;;;;;;0.60;0.60;;;;;;;;;;4934770;29;20186;-74
2023/01/07 03:43:04;;;;;;;0.60;0.60;;;;;;;;;;4934338;29;20543;-74
2023/01/07 03:45:30;;;;;;;0.70;0.70;;;;;;;;;;4934721;29;20199;-74
2023/01/07 03:47:56;;;;;;;0.70;0.70;;;;;;;;;;4934618;29;20274;-74
2023/01/07 03:50:23;;;;;;;0.60;0.60;;;;;;;;;;4934607;29;20179;-74
2023/01/07 03:52:49;;;;;;;0.67;0.67;;;;;;;;;;4933885;29;20184;-74
2023/01/07 03:55:15;;;;;;;0.70;0.70;;;;;;;;;;4935094;29;20286;-74
2023/01/07 03:57:41;;;;;;;0.50;0.50;;;;;;;;;;4934590;29;20175;-74
2023/01/07 04:00:09;;;;;;;0.63;0.63;;;;;;;;;;4934675;29;20186;-74
2023/01/07 04:02:35;;;;;;;0.60;0.60;;;;;;;;;;4934333;29;20179;-75
2023/01/07 04:05:00;;;;;;;0.70;0.70;;;;;;;;;;4936592;29;20206;-75
2023/01/07 04:07:26;;;;;;;0.67;0.67;;;;;;;;;;4935760;29;20233;-75
2023/01/07 04:09:52;;;;;;;0.57;0.57;;;;;;;;;;4937514;29;20544;-75
2023/01/07 04:12:18;;;;;;;0.50;0.50;;;;;;;;;;4937276;29;20187;-74
2023/01/07 04:14:44;;;;;;;0.63;0.63;;;;;;;;;;4937472;29;20206;-75
2023/01/07 04:17:10;;;;;;;0.70;0.70;;;;;;;;;;4937938;29;20194;-74
2023/01/07 04:19:37;;;;;;;0.60;0.60;;;;;;;;;;4937138;29;20191;-75
2023/01/07 04:22:04;;;;;;;0.60;0.60;;;;;;;;;;4936967;29;20684;-75
2023/01/07 04:24:30;;;;;;;0.60;0.60;;;;;;;;;;4937026;29;20641;-75
2023/01/07 04:26:56;;;;;;;0.60;0.60;;;;;;;;;;4937601;29;20315;-74
2023/01/07 04:29:22;;;;;;;0.63;0.63;;;;;;;;;;4936441;29;20706;-74
2023/01/07 04:31:48;;;;;;;0.70;0.70;;;;;;;;;;4937354;29;20183;-74
2023/01/07 04:34:14;;;;;;;0.70;0.70;;;;;;;;;;4937158;29;20199;-74
2023/01/07 04:36:40;;;;;;;0.53;0.53;;;;;;;;;;4937475;29;20227;-74
2023/01/07 04:39:06;;;;;;;0.70;0.70;;;;;;;;;;4936715;29;20539;-74
2023/01/07 04:41:32;;;;;;;0.50;0.50;;;;;;;;;;4937401;29;20653;-74
2023/01/07 04:43:58;;;;;;;0.70;0.70;;;;;;;;;;4936444;29;20191;-74
2023/01/07 04:46:24;;;;;;;0.60;0.60;;;;;;;;;;4936818;29;20263;-74
2023/01/07 04:48:50;;;;;;;0.60;0.60;;;;;;;;;;4934302;29;20559;-74
2023/01/07 04:51:19;;;;;;;0.60;0.60;;;;;;;;;;4937243;29;20249;-74
2023/01/07 04:53:46;;;;;;;0.60;0.60;;;;;;;;;;4938320;29;20234;-74
2023/01/07 04:56:12;;;;;;;0.70;0.70;;;;;;;;;;4938117;29;20676;-74
2023/01/07 04:58:38;;;;;;;0.60;0.60;;;;;;;;;;4937999;29;20207;-74
2023/01/07 05:01:05;;;;;;;0.50;0.50;;;;;;;;;;4937589;29;20185;-74
2023/01/07 05:03:33;;;;;;;0.70;0.70;;;;;;;;;;4919915;29;20182;-74
2023/01/07 05:05:59;;;;;;;0.60;0.60;;;;;;;;;;4937261;29;20640;-74
2023/01/07 05:08:25;;;;;;;0.57;0.57;;;;;;;;;;4937776;29;20199;-74
2023/01/07 05:10:51;;;;;;;0.70;0.70;;;;;;;;;;4937716;29;20599;-74
2023/01/07 05:13:19;;;;;;;0.70;0.70;;;;;;;;;;4936884;29;20214;-74
2023/01/07 05:15:45;;;;;;;0.57;0.57;;;;;;;;;;4937345;29;20191;-74
2023/01/07 05:18:11;;;;;;;0.60;0.60;;;;;;;;;;4937386;29;20242;-74
2023/01/07 05:20:37;;;;;;;0.70;0.70;;;;;;;;;;4937604;29;20192;-74
2023/01/07 05:23:04;;;;;;;0.70;0.70;;;;;;;;;;4937204;29;20262;-74
2023/01/07 05:25:30;;;;;;;0.60;0.60;;;;;;;;;;4937125;29;20313;-74
2023/01/07 05:27:56;;;;;;;0.50;0.50;;;;;;;;;;4937204;29;20564;-74
2023/01/07 05:30:22;;;;;;;0.67;0.67;;;;;;;;;;4937093;29;20249;-74
2023/01/07 05:32:48;;;;;;;0.53;0.53;;;;;;;;;;4936574;29;20193;-74
2023/01/07 05:35:14;;;;;;;0.50;0.50;;;;;;;;;;4937185;29;20213;-74
2023/01/07 05:37:40;;;;;;;0.57;0.57;;;;;;;;;;4936944;29;20548;-74
2023/01/07 05:40:06;;;;;;;0.60;0.60;;;;;;;;;;4937156;29;20179;-74
2023/01/07 05:42:32;;;;;;;0.77;0.77;;;;;;;;;;4936475;29;20191;-76
2023/01/07 05:44:58;;;;;;;0.70;0.70;;;;;;;;;;4936617;29;20258;-74
2023/01/07 05:47:24;;;;;;;0.60;0.60;;;;;;;;;;4936465;29;20240;-74
2023/01/07 05:49:50;;;;;;;0.70;0.70;;;;;;;;;;4936750;29;20179;-74
2023/01/07 05:52:16;;;;;;;0.50;0.50;;;;;;;;;;4936468;29;20909;-74
2023/01/07 05:54:42;;;;;;;0.70;0.70;;;;;;;;;;4936135;29;20199;-75
2023/01/07 05:57:08;;;;;;;0.60;0.60;;;;;;;;;;4936444;29;20282;-74
2023/01/07 05:59:34;;;;;;;0.53;0.53;;;;;;;;;;4936536;29;20187;-74
2023/01/07 06:02:03;;;;;;;0.70;0.70;;;;;;;;;;4935936;29;20691;-74
2023/01/07 06:04:29;;;;;;;0.60;0.60;;;;;;;;;;4935664;29;20226;-73
2023/01/07 06:06:55;;;;;;;0.60;0.60;;;;;;;;;;4936475;29;20222;-74
2023/01/07 06:09:21;;;;;;;0.60;0.60;;;;;;;;;;4936849;29;20182;-74
2023/01/07 06:11:47;;;;;;;0.60;0.60;;;;;;;;;;4936210;29;20252;-74
2023/01/07 06:14:13;;;;;;;0.60;0.60;;;;;;;;;;4935620;29;20720;-74
2023/01/07 06:16:40;;;;;;;0.60;0.60;;;;;;;;;;4936216;29;20179;-75
2023/01/07 06:19:06;;;;;;;0.70;0.70;;;;;;;;;;4936572;29;20203;-74
2023/01/07 06:21:31;;;;;;;0.57;0.57;;;;;;;;;;4936321;29;20214;-74
2023/01/07 06:23:57;;;;;;;0.60;0.60;;;;;;;;;;4935674;29;20202;-74
2023/01/07 06:26:24;;;;;;;0.60;0.60;;;;;;;;;;4936122;29;20239;-74
2023/01/07 06:28:53;;;;;;;0.70;0.70;;;;;;;;;;4936117;29;20201;-74
2023/01/07 06:31:18;;;;;;;0.63;0.63;;;;;;;;;;4935879;29;20175;-74
2023/01/07 06:33:44;;;;;;;0.60;0.60;;;;;;;;;;4935528;29;20523;-74
2023/01/07 06:36:10;;;;;;;0.60;0.60;;;;;;;;;;4936041;29;20686;-75
2023/01/07 06:38:36;;;;;;;0.60;0.60;;;;;;;;;;4936010;29;20242;-74
2023/01/07 06:41:02;;;;;;;0.60;0.60;;;;;;;;;;4935543;29;20235;-74
2023/01/07 06:43:29;;;;;;;0.67;0.67;;;;;;;;;;4935211;29;20183;-74
2023/01/07 06:45:55;;;;;;;0.60;0.60;;;;;;;;;;4935348;29;20219;-74
2023/01/07 06:48:21;;;;;;;0.50;0.50;;;;;;;;;;4936296;29;20207;-75
2023/01/07 06:50:47;;;;;;;0.60;0.60;;;;;;;;;;4935536;29;20250;-75
2023/01/07 06:53:13;;;;;;;0.60;0.60;;;;;;;;;;4934935;29;20179;-74
2023/01/07 06:55:39;;;;;;;0.50;0.50;;;;;;;;;;4935586;29;20207;-75
2023/01/07 06:58:05;;;;;;;0.60;0.60;;;;;;;;;;4935617;29;20187;-74
2023/01/07 07:00:31;;;;;;;0.60;0.60;;;;;;;;;;4935392;29;20250;-75
2023/01/07 07:02:56;;;;;;;0.63;0.63;;;;;;;;;;4935075;29;20648;-75
2023/01/07 07:05:22;;;;;;;0.70;0.70;;;;;;;;;;4935544;29;20199;-74
2023/01/07 07:07:48;;;;;;;0.60;0.60;;;;;;;;;;4935387;29;20226;-75
2023/01/07 07:10:14;;;;;;;0.67;0.67;;;;;;;;;;4935349;29;20203;-75
2023/01/07 07:12:40;;;;;;;0.60;0.60;;;;;;;;;;4933572;29;20191;-75
2023/01/07 07:15:07;;;;;;;0.60;0.60;;;;;;;;;;4935110;29;20203;-75
2023/01/07 07:17:33;;;;;;;0.60;0.60;;;;;;;;;;4934663;29;20179;-74
2023/01/07 07:19:59;;;;;;;0.70;0.70;;;;;;;;;;4943825;29;20186;-74
2023/01/07 07:22:25;;;;;;;0.50;0.50;;;;;;;;;;4942315;29;20611;-74
2023/01/07 07:24:51;;;;;;;0.80;0.80;;;;;;;;;;4944390;28;20290;-74
2023/01/07 07:27:17;;;;;;;0.60;0.60;;;;;;;;;;4945512;29;20229;-74
2023/01/07 07:29:43;;;;;;;0.60;0.60;;;;;;;;;;4944033;29;20201;-76
2023/01/07 07:32:09;;;;;;;0.60;0.60;;;;;;;;;;4934685;29;20206;-75
2023/01/07 07:34:35;;;;;;;0.70;0.70;;;;;;;;;;4935612;29;20191;-76
2023/01/07 07:37:01;;;;;;;0.50;0.50;;;;;;;;;;4934796;29;20187;-75
2023/01/07 07:39:27;;;;;;;0.70;0.70;;;;;;;;;;4934729;29;20306;-75
2023/01/07 07:41:53;;;;;;;0.57;0.57;;;;;;;;;;4934724;29;20186;-75
2023/01/07 07:44:19;;;;;;;0.60;0.60;;;;;;;;;;4934103;29;20732;-75
2023/01/07 07:46:45;;;;;;;0.63;0.63;;;;;;;;;;4934697;29;20298;-75
2023/01/07 07:49:11;;;;;;;0.60;0.60;;;;;;;;;;4934561;29;20186;-75
2023/01/07 07:51:37;;;;;;;0.60;0.60;;;;;;;;;;4934509;29;20183;-76
2023/01/07 07:54:03;;;;;;;0.60;0.60;;;;;;;;;;4933883;29;20183;-75
2023/01/07 07:56:29;;;;;;;0.57;0.57;;;;;;;;;;4934588;29;20274;-75
2023/01/07 07:58:55;;;;;;;0.60;0.60;;;;;;;;;;4934229;29;20179;-75
2023/01/07 08:01:21;;;;;;;0.70;0.70;;;;;;;;;;4936445;29;20189;-74
2023/01/07 08:03:47;;;;;;;0.60;0.60;;;;;;;;;;4946428;29;20183;-75
2023/01/07 08:06:13;;;;;;;0.50;0.50;;;;;;;;;;4945203;29;20293;-74
2023/01/07 08:08:39;;;;;;;0.70;0.70;;;;;;;;;;4945457;29;20186;-74
2023/01/07 08:11:05;;;;;;;0.63;0.63;;;;;;;;;;4934493;29;20205;-75
2023/01/07 08:13:31;;;;;;;0.60;0.60;;;;;;;;;;4933509;29;20183;-75
2023/01/07 08:15:57;;;;;;;0.60;0.60;;;;;;;;;;4934056;29;20199;-75
2023/01/07 08:18:24;;;;;;;0.60;0.60;;;;;;;;;;4934326;29;20184;-75
2023/01/07 08:20:50;;;;;;;0.60;0.60;;;;;;;;;;4934119;29;20179;-74
2023/01/07 08:23:16;;;;;;;0.70;0.70;;;;;;;;;;4933643;29;20282;-74
2023/01/07 08:25:42;;;;;;;0.60;0.60;;;;;;;;;;4933639;29;20254;-74
2023/01/07 08:28:09;;;;;;;0.50;0.50;;;;;;;;;;4934070;29;20175;-74
2023/01/07 08:30:35;;;;;;;0.63;0.63;;;;;;;;;;4933861;29;20179;-73
2023/01/07 08:33:06;;;;;;;0.60;0.60;;;;;;;;;;4933473;29;20238;-73
2023/01/07 08:35:32;;;;;;;0.70;0.70;;;;;;;;;;4933945;29;20297;-73
2023/01/07 08:38:05;;;;;;;0.57;0.57;;;;;;;;;;4933728;29;20282;-74
2023/01/07 08:40:31;;;;;;;0.60;0.60;;;;;;;;;;4933651;29;20259;-74
2023/01/07 08:42:58;;;;;;;0.60;0.60;;;;;;;;;;4933196;29;20187;-75
2023/01/07 08:45:24;;;;;;;0.60;0.60;;;;;;;;;;4933677;29;20252;-72
2023/01/07 08:47:50;;;;;;;0.70;0.70;;;;;;;;;;4934212;29;20290;-75
2023/01/07 08:50:16;;;;;;;0.50;0.50;;;;;;;;;;4944696;29;20592;-74
2023/01/07 08:52:45;;;;;;;0.70;0.70;;;;;;;;;;4941852;29;20190;-73
2023/01/07 08:55:11;;;;;;;0.53;0.53;;;;;;;;;;4933602;29;20237;-73
2023/01/07 08:57:37;;;;;;;0.60;0.60;;;;;;;;;;4933962;29;20632;-75
2023/01/07 09:00:03;;;;;;;0.60;0.60;;;;;;;;;;4923036;29;20187;-75
2023/01/07 09:02:29;;;;;;;0.60;0.60;;;;;;;;;;4925327;28;20213;-75
2023/01/07 09:04:54;;;;;;;0.60;0.60;;;;;;;;;;4933496;29;20231;-74
2023/01/07 09:07:20;;;;;;;0.60;0.60;;;;;;;;;;4933731;29;20223;-76
2023/01/07 09:09:46;;;;;;;0.60;0.60;;;;;;;;;;4933703;29;20265;-76
2023/01/07 09:12:12;;;;;;;0.57;0.57;;;;;;;;;;4933878;29;20179;-76
2023/01/07 09:14:38;;;;;;;0.60;0.60;;;;;;;;;;4933417;29;20869;-74
2023/01/07 09:17:04;;;;;;;0.60;0.60;;;;;;;;;;4933669;29;20602;-75
2023/01/07 09:19:30;;;;;;;0.50;0.50;;;;;;;;;;4933761;29;20195;-75
2023/01/07 09:21:56;;;;;;;0.60;0.60;;;;;;;;;;4930623;29;20184;-75
2023/01/07 09:24:22;;;;;;;0.70;0.70;;;;;;;;;;4916435;29;20214;-73
2023/01/07 09:26:48;;;;;;;0.60;0.60;;;;;;;;;;4926942;29;20643;-75
2023/01/07 09:29:14;;;;;;;0.50;0.50;;;;;;;;;;4933293;29;20180;-76
2023/01/07 09:31:40;;;;;;;0.60;0.60;;;;;;;;;;4933671;29;20198;-74
2023/01/07 09:34:06;;;;;;;0.50;0.50;;;;;;;;;;4926910;29;20198;-73
2023/01/07 09:36:32;;;;;;;0.50;0.50;;;;;;;;;;4934965;29;20182;-73
2023/01/07 09:38:58;;;;;;;0.70;0.70;;;;;;;;;;4937276;28;20191;-74
2023/01/07 09:41:34;;;;;;;0.60;0.60;;;;;;;;;;4931986;29;20554;-73
2023/01/07 09:44:07;;;;;;;0.60;0.60;;;;;;;;;;4930594;29;20186;-73
2023/01/07 09:46:33;;;;;;;0.60;0.60;;;;;;;;;;4928845;29;20211;-73
2023/01/07 09:49:01;;;;;;;0.60;0.60;;;;;;;;;;4932204;29;20505;-73
2023/01/07 09:51:34;;;;;;;0.80;0.80;;;;;;;;;;4927668;29;20183;-73
2023/01/07 09:54:02;;;;;;;0.60;0.60;;;;;;;;;;4927153;29;20185;-74
2023/01/07 09:56:29;;;;;;;0.60;0.60;;;;;;;;;;4926559;29;20182;-73
2023/01/07 09:58:56;;;;;;;0.70;0.70;;;;;;;;;;4925715;29;20168;-74
2023/01/07 10:01:31;;;;;;;0.60;0.60;;;;;;;;;;4927561;29;20203;-73
2023/01/07 10:04:15;;;;;;;0.67;0.67;;;;;;;;;;4926965;29;20278;-73
2023/01/07 10:07:00;;;;;;;0.50;0.50;;;;;;;;;;4930862;29;20274;-73
2023/01/07 10:09:29;;;;;;;0.60;0.60;;;;;;;;;;4936546;29;20187;-74
2023/01/07 10:11:56;;;;;;;0.50;0.50;;;;;;;;;;4932915;29;20179;-74
2023/01/07 10:14:31;;;;;;;0.50;0.50;;;;;;;;;;4925779;29;20597;-73
2023/01/07 10:17:09;;;;;;;0.50;0.50;;;;;;;;;;4927312;29;20616;-73
2023/01/07 10:19:58;;;;;;;0.50;0.50;;;;;;;;;;4927203;28;20183;-74
2023/01/07 10:22:28;;;;;;;0.40;0.40;;;;;;;;;;4921670;29;20191;-74
2023/01/07 10:25:00;;;;;;;0.40;0.40;;;;;;;;;;4927008;29;20192;-74
2023/01/07 10:27:29;;;;;;;0.40;0.40;;;;;;;;;;4926471;29;20207;-74
2023/01/07 10:29:58;;;;;;;0.40;0.40;;;;;;;;;;4924986;29;20609;-74
2023/01/07 10:32:28;;;;;;;0.40;0.40;;;;;;;;;;4925994;28;20282;-75
2023/01/07 10:34:56;;;;;;;0.40;0.40;;;;;;;;;;4926616;29;20198;-73
2023/01/07 10:37:31;;;;;;;0.30;0.30;;;;;;;;;;4924517;29;20263;-75
2023/01/07 10:40:30;;;;;;;0.30;0.30;;;;;;;;;;4924873;29;20565;-73
2023/01/07 10:43:08;;;;;;;0.30;0.30;;;;;;;;;;4907056;29;20318;-74
2023/01/07 10:45:36;;;;;;;0.40;0.40;;;;;;;;;;4927726;29;20286;-73
2023/01/07 10:48:29;;;;;;;0.40;0.40;;;;;;;;;;4926538;29;20234;-74
2023/01/07 10:50:55;;;;;;;0.40;0.40;;;;;;;;;;4927201;29;20314;-74
2023/01/07 10:53:39;;;;;;;0.30;0.30;;;;;;;;;;4942059;29;20266;-74
2023/01/07 10:56:09;;;;;;;0.33;0.33;;;;;;;;;;4953102;28;20202;-73
2023/01/07 10:58:42;;;;;;;0.40;0.40;;;;;;;;;;4953340;29;20554;-74
2023/01/07 11:01:12;;;;;;;0.47;0.47;;;;;;;;;;4952791;29;20192;-74
2023/01/07 11:03:39;;;;;;;0.40;0.40;;;;;;;;;;4952869;29;20174;-74
2023/01/07 11:06:08;;;;;;;0.30;0.30;;;;;;;;;;4953334;28;20225;-74
2023/01/07 11:08:38;;;;;;;0.30;0.30;;;;;;;;;;4951634;29;20269;-74
2023/01/07 11:11:04;;;;;;;0.40;0.40;;;;;;;;;;4953408;29;20187;-74
2023/01/07 11:13:32;;;;;;;0.40;0.40;;;;;;;;;;4952599;29;21311;-74
2023/01/07 11:16:09;;;;;;;0.50;0.50;;;;;;;;;;4948579;28;20874;-73
2023/01/07 11:18:35;;;;;;;0.40;0.40;;;;;;;;;;4952958;29;20175;-74
2023/01/07 11:21:02;;;;;;;0.60;0.60;;;;;;;;;;4953462;29;20861;-74
2023/01/07 11:23:28;;;;;;;0.40;0.40;;;;;;;;;;4954495;29;20175;-74
2023/01/07 11:25:54;;;;;;;0.60;0.60;;;;;;;;;;4951483;28;20234;-74
2023/01/07 11:28:25;;;;;;;0.60;0.60;;;;;;;;;;4953109;29;20194;-74
2023/01/07 11:31:00;;;;;;;0.53;0.53;;;;;;;;;;4952727;29;20189;-73
2023/01/07 11:33:45;;;;;;;0.50;0.50;;;;;;;;;;4952783;29;20282;-76
2023/01/07 11:36:11;;;;;;;0.50;0.50;;;;;;;;;;4935471;29;20206;-74
2023/01/07 11:38:37;;;;;;;0.50;0.50;;;;;;;;;;4953260;29;20188;-74
2023/01/07 11:41:05;;;;;;;0.50;0.50;;;;;;;;;;4953568;29;20205;-74
2023/01/07 11:43:40;;;;;;;0.50;0.50;;;;;;;;;;4953069;29;20294;-74
2023/01/07 11:46:12;;;;;;;0.50;0.50;;;;;;;;;;4953382;28;20320;-75
2023/01/07 11:48:41;;;;;;;0.53;0.53;;;;;;;;;;4953627;29;20185;-73
2023/01/07 11:51:10;;;;;;;0.50;0.50;;;;;;;;;;4950607;29;20263;-73
2023/01/07 11:53:49;;;;;;;0.50;0.50;;;;;;;;;;4952367;29;20194;-74
2023/01/07 11:56:28;;;;;;;0.50;0.50;;;;;;;;;;4952654;28;20194;-74
2023/01/07 11:59:13;;;;;;;0.43;0.43;;;;;;;;;;4952888;28;20178;-73
2023/01/07 12:01:55;;;;;;;0.50;0.50;;;;;;;;;;4953166;29;20193;-73
2023/01/07 12:04:35;;;;;;;0.50;0.50;;;;;;;;;;4952086;28;20242;-74
2023/01/07 12:07:03;;;;;;;0.40;0.40;;;;;;;;;;4952107;29;20718;-75
2023/01/07 12:09:35;;;;;;;0.50;0.50;;;;;;;;;;4951665;29;20175;-75
2023/01/07 12:12:30;;;;;;;0.40;0.40;;;;;;;;;;4952975;29;20202;-75
2023/01/07 12:14:56;;;;;;;0.50;0.50;;;;;;;;;;4952369;28;20237;-73
2023/01/07 12:17:23;;;;;;;0.50;0.50;;;;;;;;;;4953007;29;20215;-74
2023/01/07 12:20:08;;;;;;;0.63;0.63;;;;;;;;;;4952700;29;20202;-73
2023/01/07 12:22:45;;;;;;;0.40;0.40;;;;;;;;;;4951359;29;20171;-75
2023/01/07 12:25:34;;;;;;;0.40;0.40;;;;;;;;;;4949745;28;20206;-75
2023/01/07 12:28:15;;;;;;;0.40;0.40;;;;;;;;;;4922523;29;20219;-74
2023/01/07 12:31:07;;;;;;;0.43;0.43;;;;;;;;;;4916054;29;20283;-74
2023/01/07 12:33:59;;;;;;;0.40;0.40;;;;;;;;;;4918353;29;20195;-73
2023/01/07 12:36:42;;;;;;;0.50;0.50;;;;;;;;;;4912088;29;20208;-74
2023/01/07 12:39:12;;;;;;;0.43;0.43;;;;;;;;;;4927380;29;20191;-74
2023/01/07 12:41:44;;;;;;;0.40;0.40;;;;;;;;;;4930563;29;20242;-74
2023/01/07 12:44:16;;;;;;;0.40;0.40;;;;;;;;;;4928698;29;20286;-75
2023/01/07 12:46:51;;;;;;;0.30;0.30;;;;;;;;;;4932382;29;20579;-74
2023/01/07 12:49:22;;;;;;;0.40;0.40;;;;;;;;;;4931886;29;20190;-74
2023/01/07 12:51:54;;;;;;;0.40;0.40;;;;;;;;;;4932508;29;20195;-74
2023/01/07 12:54:26;;;;;;;0.50;0.50;;;;;;;;;;4928303;29;20289;-74
2023/01/07 12:57:02;;;;;;;0.33;0.33;;;;;;;;;;4930403;29;20520;-74
2023/01/07 12:59:35;;;;;;;0.40;0.40;;;;;;;;;;4931718;29;20187;-74
2023/01/07 13:02:24;;;;;;;0.40;0.40;;;;;;;;;;4931884;29;20191;-73
2023/01/07 13:05:03;;;;;;;0.40;0.40;;;;;;;;;;4928999;29;20203;-74
2023/01/07 13:07:32;;;;;;;0.50;0.50;;;;;;;;;;4924390;29;20215;-75
2023/01/07 13:10:00;;;;;;;0.57;0.57;;;;;;;;;;4931446;29;20645;-74
2023/01/07 13:12:41;;;;;;;0.50;0.50;;;;;;;;;;4934219;29;21461;-75
2023/01/07 13:15:27;;;;;;;0.40;0.40;;;;;;;;;;4935180;29;20199;-75
2023/01/07 13:18:19;;;;;;;0.40;0.40;;;;;;;;;;4936481;29;20183;-75
2023/01/07 13:21:03;;;;;;;0.30;0.30;;;;;;;;;;4928709;29;20200;-74
2023/01/07 13:23:48;;;;;;;0.40;0.40;;;;;;;;;;4933914;29;20198;-74
2023/01/07 13:26:32;;;;;;;0.40;0.40;;;;;;;;;;4932019;29;20283;-74
2023/01/07 13:29:04;;;;;;;0.47;0.47;;;;;;;;;;4934914;29;20187;-73
2023/01/07 13:31:41;;;;;;;0.40;0.40;;;;;;;;;;4936578;29;20187;-74
2023/01/07 13:34:16;;;;;;;0.30;0.30;;;;;;;;;;4935901;29;20603;-74
2023/01/07 13:37:00;;;;;;;0.40;0.40;;;;;;;;;;4923514;29;20620;-73
2023/01/07 13:39:32;;;;;;;0.33;0.33;;;;;;;;;;4943215;29;20298;-74
2023/01/07 13:42:16;;;;;;;0.40;0.40;;;;;;;;;;4944647;29;20190;-74
2023/01/07 13:44:42;;;;;;;0.40;0.40;;;;;;;;;;4946148;29;20203;-74
2023/01/07 13:47:10;;;;;;;0.50;0.50;;;;;;;;;;4933155;29;20653;-74
2023/01/07 13:49:36;;;;;;;0.40;0.40;;;;;;;;;;4935158;29;20238;-74
2023/01/07 13:52:13;;;;;;;0.40;0.40;;;;;;;;;;4923871;29;20381;-74
2023/01/07 13:54:49;;;;;;;0.47;0.47;;;;;;;;;;4922630;29;20201;-75
2023/01/07 13:57:41;;;;;;;0.40;0.40;;;;;;;;;;4936337;29;20266;-74
2023/01/07 14:00:27;;;;;;;0.50;0.50;;;;;;;;;;4934292;29;20200;-74
2023/01/07 14:02:56;;;;;;;0.47;0.47;;;;;;;;;;4933143;29;20265;-74
2023/01/07 14:05:29;;;;;;;0.40;0.40;;;;;;;;;;4916177;29;20218;-75
2023/01/07 14:07:59;;;;;;;0.50;0.50;;;;;;;;;;4915914;29;20234;-74
2023/01/07 14:10:24;;;;;;;0.40;0.40;;;;;;;;;;4921064;29;20269;-74
2023/01/07 14:13:09;;;;;;;0.50;0.50;;;;;;;;;;4920329;29;20184;-74
2023/01/07 14:15:42;;;;;;;0.50;0.50;;;;;;;;;;4927797;29;20703;-74
2023/01/07 14:18:26;;;;;;;0.40;0.40;;;;;;;;;;4936384;29;20241;-74
2023/01/07 14:20:56;;;;;;;0.40;0.40;;;;;;;;;;4925427;29;20191;-74
2023/01/07 14:23:37;;;;;;;0.40;0.40;;;;;;;;;;4914749;29;20187;-75
2023/01/07 14:26:09;;;;;;;0.50;0.50;;;;;;;;;;4916249;29;20755;-74
2023/01/07 14:28:54;;;;;;;0.50;0.50;;;;;;;;;;4927442;29;20199;-74
2023/01/07 14:31:21;;;;;;;0.40;0.40;;;;;;;;;;4917142;29;20187;-74
2023/01/07 14:33:49;;;;;;;0.43;0.43;;;;;;;;;;4928327;29;20194;-76
2023/01/07 14:36:15;;;;;;;0.40;0.40;;;;;;;;;;4935443;29;20219;-74
2023/01/07 14:38:41;;;;;;;0.50;0.50;;;;;;;;;;4921884;29;20239;-75
2023/01/07 14:41:08;;;;;;;0.40;0.40;;;;;;;;;;4927648;29;20743;-75
2023/01/07 14:43:44;;;;;;;0.30;0.30;;;;;;;;;;4935089;29;20191;-75
2023/01/07 14:46:22;;;;;;;0.40;0.40;;;;;;;;;;4932291;29;20223;-75
2023/01/07 14:49:03;;;;;;;0.50;0.50;;;;;;;;;;4934567;29;20198;-75
2023/01/07 14:51:32;;;;;;;0.37;0.37;;;;;;;;;;4927335;29;20242;-75
2023/01/07 14:54:17;;;;;;;0.40;0.40;;;;;;;;;;4928091;29;20735;-76
2023/01/07 14:56:45;;;;;;;0.50;0.50;;;;;;;;;;4929304;29;20557;-74
2023/01/07 14:59:34;;;;;;;0.40;0.40;;;;;;;;;;4924091;29;20294;-74